sensor_id;sensor_type;location;lat;lon;timestamp;pressure;altitude;pressure_sealevel;temperature;humidity
3434;BME280;1730;41.932;25.548;2023-08-08T00:01:21;98643.81;;;24.15;100.00
3434;BME280;1730;41.932;25.548;2023-08-08T00:03:46;98652.97;;;24.21;100.00
3434;BME280;1730;41.932;25.548;2023-08-08T00:06:12;98651.84;;;24.17;100.00
3434;BME280;1730;41.932;25.548;2023-08-08T00:08:38;98623.50;;;24.00;100.00
3434;BME280;1730;41.932;25.548;2023-08-08T00:11:04;98648.16;;;24.11;100.00
3434;BME280;1730;41.932;25.548;2023-08-08T00:13:29;98652.91;;;23.94;100.00
3434;BME280;1730;41.932;25.548;2023-08-08T00:15:54;98652.91;;;24.16;100.00
3434;BME280;1730;41.932;25.548;2023-08-08T00:18:20;98656.56;;;24.00;100.00
3434;BME280;1730;41.932;25.548;2023-08-08T00:20:45;98634.78;;;23.76;100.00
3434;BME280;1730;41.932;25.548;2023-08-08T00:23:11;98656.88;;;24.03;100.00
3434;BME280;1730;41.932;25.548;2023-08-08T00:25:36;98668.44;;;24.05;100.00
3434;BME280;1730;41.932;25.548;2023-08-08T00:28:03;98665.97;;;24.04;100.00
3434;BME280;1730;41.932;25.548;2023-08-08T00:30:28;98659.75;;;24.35;100.00
3434;BME280;1730;41.932;25.548;2023-08-08T00:32:54;98667.81;;;24.42;100.00
3434;BME280;1730;41.932;25.548;2023-08-08T00:35:19;98670.38;;;24.27;100.00
3434;BME280;1730;41.932;25.548;2023-08-08T00:37:45;98576.44;;;23.79;100.00
3434;BME280;1730;41.932;25.548;2023-08-08T00:40:10;98626.56;;;24.25;100.00
3434;BME280;1730;41.932;25.548;2023-08-08T00:42:36;98646.78;;;24.36;100.00
3434;BME280;1730;41.932;25.548;2023-08-08T00:45:02;98668.69;;;24.47;100.00
3434;BME280;1730;41.932;25.548;2023-08-08T00:47:34;98670.44;;;24.10;100.00
3434;BME280;1730;41.932;25.548;2023-08-08T00:50:00;98667.37;;;24.28;100.00
3434;BME280;1730;41.932;25.548;2023-08-08T00:52:26;98665.88;;;24.42;100.00
3434;BME280;1730;41.932;25.548;2023-08-08T00:54:52;98673.13;;;24.27;100.00
3434;BME280;1730;41.932;25.548;2023-08-08T00:57:18;98674.31;;;24.31;100.00
3434;BME280;1730;41.932;25.548;2023-08-08T00:59:44;98670.59;;;24.20;100.00
3434;BME280;1730;41.932;25.548;2023-08-08T01:02:09;98678.72;;;24.32;100.00
3434;BME280;1730;41.932;25.548;2023-08-08T01:04:35;98671.22;;;24.54;100.00
3434;BME280;1730;41.932;25.548;2023-08-08T01:09:39;98686.72;;;24.33;100.00
3434;BME280;1730;41.932;25.548;2023-08-08T01:12:08;98590.84;;;23.87;100.00
3434;BME280;1730;41.932;25.548;2023-08-08T01:14:38;98656.59;;;24.27;100.00
3434;BME280;1730;41.932;25.548;2023-08-08T01:17:05;98672.94;;;24.33;100.00
3434;BME280;1730;41.932;25.548;2023-08-08T01:19:31;98652.59;;;23.91;100.00
3434;BME280;1730;41.932;25.548;2023-08-08T01:22:01;98682.22;;;24.05;100.00
3434;BME280;1730;41.932;25.548;2023-08-08T01:24:30;98683.22;;;23.94;100.00
3434;BME280;1730;41.932;25.548;2023-08-08T01:27:01;98688.25;;;24.02;100.00
3434;BME280;1730;41.932;25.548;2023-08-08T01:29:27;98684.06;;;24.16;100.00
3434;BME280;1730;41.932;25.548;2023-08-08T01:31:53;98691.53;;;24.43;100.00
3434;BME280;1730;41.932;25.548;2023-08-08T01:34:20;98670.56;;;24.42;100.00
3434;BME280;1730;41.932;25.548;2023-08-08T01:39:26;98701.28;;;24.29;100.00
3434;BME280;1730;41.932;25.548;2023-08-08T01:41:54;98693.09;;;24.34;100.00
3434;BME280;1730;41.932;25.548;2023-08-08T01:44:19;98697.53;;;24.40;100.00
3434;BME280;1730;41.932;25.548;2023-08-08T01:46:47;98686.28;;;24.19;100.00
3434;BME280;1730;41.932;25.548;2023-08-08T01:49:13;98698.16;;;24.20;100.00
3434;BME280;1730;41.932;25.548;2023-08-08T01:51:39;98704.19;;;24.00;100.00
3434;BME280;1730;41.932;25.548;2023-08-08T01:54:04;98693.13;;;23.95;100.00
3434;BME280;1730;41.932;25.548;2023-08-08T01:56:30;98702.41;;;23.89;100.00
3434;BME280;1730;41.932;25.548;2023-08-08T01:58:55;98692.47;;;23.88;100.00
3434;BME280;1730;41.932;25.548;2023-08-08T02:01:21;98689.09;;;23.81;100.00
3434;BME280;1730;41.932;25.548;2023-08-08T02:03:47;98689.72;;;23.66;100.00
3434;BME280;1730;41.932;25.548;2023-08-08T02:06:13;98722.13;;;23.81;100.00
3434;BME280;1730;41.932;25.548;2023-08-08T02:08:38;98720.00;;;23.66;100.00
3434;BME280;1730;41.932;25.548;2023-08-08T02:11:04;98725.19;;;23.63;100.00
3434;BME280;1730;41.932;25.548;2023-08-08T02:13:29;98725.56;;;23.71;100.00
3434;BME280;1730;41.932;25.548;2023-08-08T02:15:55;98680.38;;;23.67;100.00
3434;BME280;1730;41.932;25.548;2023-08-08T02:18:22;98643.97;;;23.65;100.00
3434;BME280;1730;41.932;25.548;2023-08-08T02:20:48;98630.03;;;23.50;100.00
3434;BME280;1730;41.932;25.548;2023-08-08T02:23:13;98728.22;;;23.83;100.00
3434;BME280;1730;41.932;25.548;2023-08-08T02:25:40;98735.97;;;23.86;100.00
3434;BME280;1730;41.932;25.548;2023-08-08T02:28:06;98735.31;;;23.96;100.00
3434;BME280;1730;41.932;25.548;2023-08-08T02:30:31;98712.06;;;23.70;100.00
3434;BME280;1730;41.932;25.548;2023-08-08T02:32:57;98683.63;;;23.64;100.00
3434;BME280;1730;41.932;25.548;2023-08-08T02:35:22;98742.53;;;24.02;100.00
3434;BME280;1730;41.932;25.548;2023-08-08T02:37:47;98749.91;;;23.79;100.00
3434;BME280;1730;41.932;25.548;2023-08-08T02:40:13;98741.78;;;23.68;100.00
3434;BME280;1730;41.932;25.548;2023-08-08T02:42:39;98755.97;;;23.60;100.00
3434;BME280;1730;41.932;25.548;2023-08-08T02:45:05;98757.09;;;23.80;100.00
3434;BME280;1730;41.932;25.548;2023-08-08T02:47:32;98765.03;;;23.77;100.00
3434;BME280;1730;41.932;25.548;2023-08-08T02:49:57;98768.63;;;23.61;100.00
3434;BME280;1730;41.932;25.548;2023-08-08T02:52:24;98763.72;;;23.63;100.00
3434;BME280;1730;41.932;25.548;2023-08-08T02:54:49;98737.44;;;23.22;100.00
3434;BME280;1730;41.932;25.548;2023-08-08T02:57:16;98777.69;;;23.56;100.00
3434;BME280;1730;41.932;25.548;2023-08-08T02:59:41;98784.41;;;23.49;100.00
3434;BME280;1730;41.932;25.548;2023-08-08T03:02:07;98785.84;;;23.51;100.00
3434;BME280;1730;41.932;25.548;2023-08-08T03:04:32;98790.94;;;23.59;100.00
3434;BME280;1730;41.932;25.548;2023-08-08T03:06:58;98789.25;;;23.58;100.00
3434;BME280;1730;41.932;25.548;2023-08-08T03:09:23;98726.59;;;23.15;100.00
3434;BME280;1730;41.932;25.548;2023-08-08T03:11:49;98786.25;;;23.60;100.00
3434;BME280;1730;41.932;25.548;2023-08-08T03:14:14;98788.50;;;23.46;100.00
3434;BME280;1730;41.932;25.548;2023-08-08T03:16:41;98786.69;;;23.52;100.00
3434;BME280;1730;41.932;25.548;2023-08-08T03:19:07;98782.66;;;23.59;100.00
3434;BME280;1730;41.932;25.548;2023-08-08T03:21:32;98789.16;;;23.53;100.00
3434;BME280;1730;41.932;25.548;2023-08-08T03:23:58;98787.97;;;23.32;100.00
3434;BME280;1730;41.932;25.548;2023-08-08T03:26:24;98792.13;;;23.18;100.00
3434;BME280;1730;41.932;25.548;2023-08-08T03:28:50;98701.91;;;22.70;100.00
3434;BME280;1730;41.932;25.548;2023-08-08T03:31:19;98809.75;;;23.34;100.00
3434;BME280;1730;41.932;25.548;2023-08-08T03:33:45;98784.00;;;22.95;100.00
3434;BME280;1730;41.932;25.548;2023-08-08T03:36:10;98820.28;;;23.09;100.00
3434;BME280;1730;41.932;25.548;2023-08-08T03:38:36;98815.62;;;23.09;100.00
3434;BME280;1730;41.932;25.548;2023-08-08T03:41:03;98818.94;;;22.95;100.00
3434;BME280;1730;41.932;25.548;2023-08-08T03:43:29;98837.03;;;22.79;100.00
3434;BME280;1730;41.932;25.548;2023-08-08T03:45:55;98821.41;;;23.08;100.00
3434;BME280;1730;41.932;25.548;2023-08-08T03:48:20;98785.00;;;23.34;100.00
3434;BME280;1730;41.932;25.548;2023-08-08T03:50:46;98701.47;;;22.78;100.00
3434;BME280;1730;41.932;25.548;2023-08-08T03:53:12;98844.78;;;23.39;100.00
3434;BME280;1730;41.932;25.548;2023-08-08T03:55:38;98323.38;;;19.96;100.00
3434;BME280;1730;41.932;25.548;2023-08-08T03:58:03;98828.47;;;23.49;100.00
3434;BME280;1730;41.932;25.548;2023-08-08T04:00:29;98821.78;;;23.45;100.00
3434;BME280;1730;41.932;25.548;2023-08-08T04:02:54;98799.72;;;23.11;100.00
3434;BME280;1730;41.932;25.548;2023-08-08T04:05:21;98790.84;;;22.92;100.00
3434;BME280;1730;41.932;25.548;2023-08-08T04:07:46;98834.09;;;22.97;100.00
3434;BME280;1730;41.932;25.548;2023-08-08T04:10:12;98844.47;;;23.07;100.00
3434;BME280;1730;41.932;25.548;2023-08-08T04:12:38;98842.69;;;23.01;100.00
3434;BME280;1730;41.932;25.548;2023-08-08T04:15:04;98855.34;;;22.85;100.00
3434;BME280;1730;41.932;25.548;2023-08-08T04:17:30;98858.00;;;22.68;100.00
3434;BME280;1730;41.932;25.548;2023-08-08T04:19:55;98867.31;;;22.67;100.00
3434;BME280;1730;41.932;25.548;2023-08-08T04:22:21;98867.09;;;22.57;100.00
3434;BME280;1730;41.932;25.548;2023-08-08T04:24:46;98833.69;;;22.37;100.00
3434;BME280;1730;41.932;25.548;2023-08-08T04:27:13;98876.66;;;22.55;100.00
3434;BME280;1730;41.932;25.548;2023-08-08T04:29:38;98631.59;;;20.91;100.00
3434;BME280;1730;41.932;25.548;2023-08-08T04:32:04;98744.91;;;21.62;100.00
3434;BME280;1730;41.932;25.548;2023-08-08T04:34:30;98886.66;;;22.61;100.00
3434;BME280;1730;41.932;25.548;2023-08-08T04:36:55;98889.31;;;22.67;100.00
3434;BME280;1730;41.932;25.548;2023-08-08T04:39:21;98786.66;;;21.87;100.00
3434;BME280;1730;41.932;25.548;2023-08-08T04:41:46;98900.56;;;22.42;100.00
3434;BME280;1730;41.932;25.548;2023-08-08T04:44:12;98848.78;;;22.11;100.00
3434;BME280;1730;41.932;25.548;2023-08-08T04:46:37;98878.50;;;22.14;100.00
3434;BME280;1730;41.932;25.548;2023-08-08T04:49:03;98921.38;;;22.27;100.00
3434;BME280;1730;41.932;25.548;2023-08-08T04:51:28;98855.84;;;21.42;100.00
3434;BME280;1730;41.932;25.548;2023-08-08T04:53:54;98861.44;;;21.36;100.00
3434;BME280;1730;41.932;25.548;2023-08-08T04:56:19;98930.78;;;21.54;100.00
3434;BME280;1730;41.932;25.548;2023-08-08T04:58:45;98966.78;;;21.76;100.00
3434;BME280;1730;41.932;25.548;2023-08-08T05:01:10;98968.03;;;22.03;100.00
3434;BME280;1730;41.932;25.548;2023-08-08T05:03:39;98969.50;;;22.18;100.00
3434;BME280;1730;41.932;25.548;2023-08-08T05:06:05;98955.81;;;21.88;100.00
3434;BME280;1730;41.932;25.548;2023-08-08T05:08:32;98991.12;;;22.02;100.00
3434;BME280;1730;41.932;25.548;2023-08-08T05:10:58;98977.19;;;21.86;100.00
3434;BME280;1730;41.932;25.548;2023-08-08T05:13:23;98984.31;;;21.75;100.00
3434;BME280;1730;41.932;25.548;2023-08-08T05:15:48;98989.56;;;21.77;100.00
3434;BME280;1730;41.932;25.548;2023-08-08T05:18:14;98966.34;;;21.49;100.00
3434;BME280;1730;41.932;25.548;2023-08-08T05:20:39;99018.72;;;21.48;100.00
3434;BME280;1730;41.932;25.548;2023-08-08T05:23:05;99030.88;;;21.52;100.00
3434;BME280;1730;41.932;25.548;2023-08-08T05:25:30;98975.13;;;21.40;100.00
3434;BME280;1730;41.932;25.548;2023-08-08T05:27:56;99037.50;;;21.63;100.00
3434;BME280;1730;41.932;25.548;2023-08-08T05:30:22;99052.12;;;21.75;100.00
3434;BME280;1730;41.932;25.548;2023-08-08T05:32:48;99010.37;;;21.54;100.00
3434;BME280;1730;41.932;25.548;2023-08-08T05:35:14;99044.59;;;21.52;100.00
3434;BME280;1730;41.932;25.548;2023-08-08T05:37:39;99055.75;;;23.21;100.00
3434;BME280;1730;41.932;25.548;2023-08-08T05:40:05;99025.97;;;23.30;100.00
3434;BME280;1730;41.932;25.548;2023-08-08T05:42:32;99007.47;;;24.44;100.00
3434;BME280;1730;41.932;25.548;2023-08-08T05:44:57;99016.16;;;25.51;100.00
3434;BME280;1730;41.932;25.548;2023-08-08T05:47:23;99020.72;;;25.40;100.00
3434;BME280;1730;41.932;25.548;2023-08-08T05:49:48;98984.25;;;25.87;100.00
3434;BME280;1730;41.932;25.548;2023-08-08T05:52:14;99025.41;;;25.18;100.00
3434;BME280;1730;41.932;25.548;2023-08-08T05:54:40;99027.50;;;24.56;100.00
3434;BME280;1730;41.932;25.548;2023-08-08T05:57:06;99027.81;;;25.31;100.00
3434;BME280;1730;41.932;25.548;2023-08-08T05:59:31;99031.03;;;25.50;100.00
3434;BME280;1730;41.932;25.548;2023-08-08T06:01:57;99044.16;;;24.61;100.00
3434;BME280;1730;41.932;25.548;2023-08-08T06:04:24;98988.22;;;23.82;100.00
3434;BME280;1730;41.932;25.548;2023-08-08T06:06:49;99059.00;;;24.60;100.00
3434;BME280;1730;41.932;25.548;2023-08-08T06:09:15;99041.75;;;25.03;100.00
3434;BME280;1730;41.932;25.548;2023-08-08T06:11:41;99075.81;;;24.13;100.00
3434;BME280;1730;41.932;25.548;2023-08-08T06:14:06;99078.56;;;24.58;100.00
3434;BME280;1730;41.932;25.548;2023-08-08T06:16:32;99086.25;;;24.56;100.00
3434;BME280;1730;41.932;25.548;2023-08-08T06:18:57;99092.41;;;25.74;100.00
3434;BME280;1730;41.932;25.548;2023-08-08T06:21:23;99108.13;;;24.30;100.00
3434;BME280;1730;41.932;25.548;2023-08-08T06:23:48;99102.28;;;24.76;100.00
3434;BME280;1730;41.932;25.548;2023-08-08T06:26:15;99117.16;;;24.58;100.00
3434;BME280;1730;41.932;25.548;2023-08-08T06:28:40;99124.66;;;24.30;100.00
3434;BME280;1730;41.932;25.548;2023-08-08T06:31:06;99126.44;;;23.67;100.00
3434;BME280;1730;41.932;25.548;2023-08-08T06:33:32;99096.84;;;24.31;100.00
3434;BME280;1730;41.932;25.548;2023-08-08T06:35:58;99131.09;;;24.07;100.00
3434;BME280;1730;41.932;25.548;2023-08-08T06:38:23;99030.63;;;21.72;100.00
3434;BME280;1730;41.932;25.548;2023-08-08T06:40:49;99149.50;;;22.62;100.00
3434;BME280;1730;41.932;25.548;2023-08-08T06:43:14;99144.06;;;23.31;100.00
3434;BME280;1730;41.932;25.548;2023-08-08T06:45:40;99152.94;;;23.10;100.00
3434;BME280;1730;41.932;25.548;2023-08-08T06:48:06;99188.22;;;22.30;100.00
3434;BME280;1730;41.932;25.548;2023-08-08T06:50:31;99159.56;;;23.84;100.00
3434;BME280;1730;41.932;25.548;2023-08-08T06:52:57;99146.84;;;23.95;100.00
3434;BME280;1730;41.932;25.548;2023-08-08T06:55:22;99170.63;;;23.38;100.00
3434;BME280;1730;41.932;25.548;2023-08-08T06:57:48;99159.69;;;23.77;100.00
3434;BME280;1730;41.932;25.548;2023-08-08T07:00:14;99192.53;;;23.44;100.00
3434;BME280;1730;41.932;25.548;2023-08-08T07:02:41;99179.22;;;24.44;100.00
3434;BME280;1730;41.932;25.548;2023-08-08T07:05:07;99177.87;;;23.78;100.00
3434;BME280;1730;41.932;25.548;2023-08-08T07:07:34;99196.59;;;23.65;100.00
3434;BME280;1730;41.932;25.548;2023-08-08T07:10:00;99221.41;;;22.77;100.00
3434;BME280;1730;41.932;25.548;2023-08-08T07:12:25;99088.78;;;21.07;100.00
3434;BME280;1730;41.932;25.548;2023-08-08T07:14:51;99224.37;;;22.45;100.00
3434;BME280;1730;41.932;25.548;2023-08-08T07:17:16;99146.25;;;22.65;100.00
3434;BME280;1730;41.932;25.548;2023-08-08T07:19:43;99210.63;;;23.52;100.00
3434;BME280;1730;41.932;25.548;2023-08-08T07:22:08;99239.84;;;22.58;100.00
3434;BME280;1730;41.932;25.548;2023-08-08T07:24:34;99211.75;;;22.86;100.00
3434;BME280;1730;41.932;25.548;2023-08-08T07:27:00;99099.19;;;22.61;100.00
3434;BME280;1730;41.932;25.548;2023-08-08T07:29:26;99239.47;;;21.88;100.00
3434;BME280;1730;41.932;25.548;2023-08-08T07:31:52;99258.94;;;22.23;100.00
3434;BME280;1730;41.932;25.548;2023-08-08T07:34:18;99240.69;;;23.00;100.00
3434;BME280;1730;41.932;25.548;2023-08-08T07:36:44;99204.56;;;22.85;100.00
3434;BME280;1730;41.932;25.548;2023-08-08T07:39:09;99243.78;;;22.51;100.00
3434;BME280;1730;41.932;25.548;2023-08-08T07:41:36;99265.94;;;22.37;100.00
3434;BME280;1730;41.932;25.548;2023-08-08T07:44:01;99229.00;;;23.40;100.00
3434;BME280;1730;41.932;25.548;2023-08-08T07:46:27;99265.94;;;22.37;100.00
3434;BME280;1730;41.932;25.548;2023-08-08T07:48:52;99211.72;;;21.78;100.00
3434;BME280;1730;41.932;25.548;2023-08-08T07:51:18;99277.56;;;21.60;100.00
3434;BME280;1730;41.932;25.548;2023-08-08T07:53:43;99240.06;;;21.72;100.00
3434;BME280;1730;41.932;25.548;2023-08-08T07:56:09;99282.88;;;22.82;100.00
3434;BME280;1730;41.932;25.548;2023-08-08T07:58:35;99298.34;;;22.47;100.00
3434;BME280;1730;41.932;25.548;2023-08-08T08:01:01;99315.19;;;21.78;100.00
3434;BME280;1730;41.932;25.548;2023-08-08T08:03:27;99330.81;;;22.02;100.00
3434;BME280;1730;41.932;25.548;2023-08-08T08:05:53;99276.91;;;23.97;100.00
3434;BME280;1730;41.932;25.548;2023-08-08T08:08:18;99271.22;;;23.10;100.00
3434;BME280;1730;41.932;25.548;2023-08-08T08:10:44;99267.31;;;22.76;100.00
3434;BME280;1730;41.932;25.548;2023-08-08T08:13:11;99288.66;;;22.92;100.00
3434;BME280;1730;41.932;25.548;2023-08-08T08:15:38;99267.06;;;23.19;100.00
3434;BME280;1730;41.932;25.548;2023-08-08T08:18:04;99281.66;;;23.31;100.00
3434;BME280;1730;41.932;25.548;2023-08-08T08:20:29;99269.69;;;23.14;100.00
3434;BME280;1730;41.932;25.548;2023-08-08T08:22:55;99296.62;;;22.82;100.00
3434;BME280;1730;41.932;25.548;2023-08-08T08:25:21;99320.84;;;23.04;100.00
3434;BME280;1730;41.932;25.548;2023-08-08T08:27:48;99276.56;;;22.94;100.00
3434;BME280;1730;41.932;25.548;2023-08-08T08:30:13;99302.94;;;21.80;100.00
3434;BME280;1730;41.932;25.548;2023-08-08T08:32:39;99150.28;;;22.80;100.00
3434;BME280;1730;41.932;25.548;2023-08-08T08:35:06;99300.03;;;22.48;100.00
3434;BME280;1730;41.932;25.548;2023-08-08T08:37:32;99347.75;;;21.25;100.00
3434;BME280;1730;41.932;25.548;2023-08-08T08:39:58;99374.47;;;20.98;100.00
3434;BME280;1730;41.932;25.548;2023-08-08T08:42:23;99342.56;;;22.27;100.00
3434;BME280;1730;41.932;25.548;2023-08-08T08:44:50;99371.75;;;22.28;100.00
3434;BME280;1730;41.932;25.548;2023-08-08T08:47:19;99338.50;;;22.30;100.00
3434;BME280;1730;41.932;25.548;2023-08-08T08:49:45;99345.50;;;21.89;100.00
3434;BME280;1730;41.932;25.548;2023-08-08T08:52:12;99316.59;;;22.60;100.00
3434;BME280;1730;41.932;25.548;2023-08-08T08:54:38;99312.84;;;23.55;100.00
3434;BME280;1730;41.932;25.548;2023-08-08T08:57:04;99296.03;;;21.53;100.00
3434;BME280;1730;41.932;25.548;2023-08-08T08:59:29;99328.34;;;21.94;100.00
3434;BME280;1730;41.932;25.548;2023-08-08T09:01:56;99365.16;;;22.29;100.00
3434;BME280;1730;41.932;25.548;2023-08-08T09:04:22;99358.06;;;20.91;100.00
3434;BME280;1730;41.932;25.548;2023-08-08T09:06:50;99337.13;;;23.05;100.00
3434;BME280;1730;41.932;25.548;2023-08-08T09:09:16;99218.63;;;22.17;100.00
3434;BME280;1730;41.932;25.548;2023-08-08T09:11:46;99338.53;;;21.87;100.00
3434;BME280;1730;41.932;25.548;2023-08-08T09:14:20;99338.25;;;21.52;100.00
3434;BME280;1730;41.932;25.548;2023-08-08T09:16:47;99331.94;;;22.97;100.00
3434;BME280;1730;41.932;25.548;2023-08-08T09:19:14;99311.69;;;22.80;100.00
3434;BME280;1730;41.932;25.548;2023-08-08T09:21:39;99161.66;;;22.13;100.00
3434;BME280;1730;41.932;25.548;2023-08-08T09:24:05;99308.28;;;22.48;100.00
3434;BME280;1730;41.932;25.548;2023-08-08T09:26:32;99253.22;;;23.72;100.00
3434;BME280;1730;41.932;25.548;2023-08-08T09:28:58;99277.91;;;22.43;100.00
3434;BME280;1730;41.932;25.548;2023-08-08T09:31:25;99304.28;;;21.71;100.00
3434;BME280;1730;41.932;25.548;2023-08-08T09:33:51;99266.09;;;23.14;100.00
3434;BME280;1730;41.932;25.548;2023-08-08T09:36:18;99158.66;;;23.44;100.00
3434;BME280;1730;41.932;25.548;2023-08-08T09:38:46;99173.47;;;22.73;100.00
3434;BME280;1730;41.932;25.548;2023-08-08T09:41:12;99249.28;;;23.68;100.00
3434;BME280;1730;41.932;25.548;2023-08-08T09:43:39;99193.84;;;22.65;100.00
3434;BME280;1730;41.932;25.548;2023-08-08T09:46:05;99246.53;;;23.68;100.00
3434;BME280;1730;41.932;25.548;2023-08-08T09:48:31;99248.19;;;23.58;100.00
3434;BME280;1730;41.932;25.548;2023-08-08T09:50:58;99227.09;;;23.87;100.00
3434;BME280;1730;41.932;25.548;2023-08-08T09:53:27;99225.81;;;23.54;100.00
3434;BME280;1730;41.932;25.548;2023-08-08T09:55:54;99209.81;;;24.43;100.00
3434;BME280;1730;41.932;25.548;2023-08-08T09:58:21;99226.88;;;23.30;100.00
3434;BME280;1730;41.932;25.548;2023-08-08T10:00:49;99239.91;;;23.81;100.00
3434;BME280;1730;41.932;25.548;2023-08-08T10:03:19;99231.28;;;23.89;100.00
3434;BME280;1730;41.932;25.548;2023-08-08T10:05:45;99209.59;;;25.39;100.00
3434;BME280;1730;41.932;25.548;2023-08-08T10:08:11;99227.34;;;24.37;100.00
3434;BME280;1730;41.932;25.548;2023-08-08T10:10:37;99189.69;;;24.87;100.00
3434;BME280;1730;41.932;25.548;2023-08-08T10:13:05;99210.44;;;23.93;100.00
3434;BME280;1730;41.932;25.548;2023-08-08T10:15:30;99225.84;;;24.06;100.00
3434;BME280;1730;41.932;25.548;2023-08-08T10:17:57;99201.94;;;24.80;100.00
3434;BME280;1730;41.932;25.548;2023-08-08T10:20:24;99225.50;;;24.02;100.00
3434;BME280;1730;41.932;25.548;2023-08-08T10:22:52;99219.22;;;24.87;100.00
3434;BME280;1730;41.932;25.548;2023-08-08T10:25:25;99132.31;;;24.73;100.00
3434;BME280;1730;41.932;25.548;2023-08-08T10:28:11;99209.22;;;24.69;100.00
3434;BME280;1730;41.932;25.548;2023-08-08T10:30:58;99206.78;;;24.73;100.00
3434;BME280;1730;41.932;25.548;2023-08-08T10:33:24;99200.56;;;25.10;100.00
3434;BME280;1730;41.932;25.548;2023-08-08T10:35:58;99205.09;;;25.72;100.00
3434;BME280;1730;41.932;25.548;2023-08-08T10:38:26;99195.81;;;25.23;100.00
3434;BME280;1730;41.932;25.548;2023-08-08T10:40:59;99184.94;;;24.54;100.00
3434;BME280;1730;41.932;25.548;2023-08-08T10:43:26;99186.28;;;24.52;100.00
3434;BME280;1730;41.932;25.548;2023-08-08T10:45:52;99188.69;;;24.20;100.00
3434;BME280;1730;41.932;25.548;2023-08-08T10:48:18;99172.59;;;24.57;100.00
3434;BME280;1730;41.932;25.548;2023-08-08T10:50:46;99165.00;;;24.81;100.00
3434;BME280;1730;41.932;25.548;2023-08-08T10:53:12;99178.22;;;25.12;100.00
3434;BME280;1730;41.932;25.548;2023-08-08T10:55:37;99187.69;;;24.99;100.00
3434;BME280;1730;41.932;25.548;2023-08-08T10:58:09;99144.06;;;25.73;100.00
3434;BME280;1730;41.932;25.548;2023-08-08T11:00:36;99176.06;;;26.34;100.00
3434;BME280;1730;41.932;25.548;2023-08-08T11:03:02;99147.31;;;25.48;100.00
3434;BME280;1730;41.932;25.548;2023-08-08T11:05:34;99177.63;;;26.52;100.00
3434;BME280;1730;41.932;25.548;2023-08-08T11:08:01;99171.84;;;26.54;100.00
3434;BME280;1730;41.932;25.548;2023-08-08T11:10:28;99172.34;;;26.77;100.00
3434;BME280;1730;41.932;25.548;2023-08-08T11:12:58;99174.75;;;26.42;100.00
3434;BME280;1730;41.932;25.548;2023-08-08T11:15:25;99161.19;;;26.67;100.00
3434;BME280;1730;41.932;25.548;2023-08-08T11:17:53;99158.78;;;26.22;100.00
3434;BME280;1730;41.932;25.548;2023-08-08T11:20:21;99054.53;;;25.96;100.00
3434;BME280;1730;41.932;25.548;2023-08-08T11:22:56;99119.72;;;25.92;100.00
3434;BME280;1730;41.932;25.548;2023-08-08T11:25:25;99159.34;;;26.24;100.00
3434;BME280;1730;41.932;25.548;2023-08-08T11:27:52;99130.22;;;25.51;100.00
3434;BME280;1730;41.932;25.548;2023-08-08T11:30:19;99148.75;;;25.73;100.00
3434;BME280;1730;41.932;25.548;2023-08-08T11:32:47;99149.72;;;27.17;100.00
3434;BME280;1730;41.932;25.548;2023-08-08T11:35:16;99141.16;;;27.19;100.00
3434;BME280;1730;41.932;25.548;2023-08-08T11:37:42;99142.88;;;27.25;100.00
3434;BME280;1730;41.932;25.548;2023-08-08T11:40:09;99133.69;;;27.66;100.00
3434;BME280;1730;41.932;25.548;2023-08-08T11:42:35;99117.72;;;27.89;100.00
3434;BME280;1730;41.932;25.548;2023-08-08T11:45:01;99123.81;;;27.86;100.00
3434;BME280;1730;41.932;25.548;2023-08-08T11:47:27;99118.69;;;27.57;100.00
3434;BME280;1730;41.932;25.548;2023-08-08T11:49:56;99122.72;;;27.40;100.00
3434;BME280;1730;41.932;25.548;2023-08-08T11:52:22;99111.44;;;26.77;100.00
3434;BME280;1730;41.932;25.548;2023-08-08T11:54:52;99109.72;;;26.98;100.00
3434;BME280;1730;41.932;25.548;2023-08-08T11:57:17;99094.13;;;26.87;100.00
3434;BME280;1730;41.932;25.548;2023-08-08T11:59:43;99102.06;;;26.46;100.00
3434;BME280;1730;41.932;25.548;2023-08-08T12:02:09;99059.06;;;26.66;100.00
3434;BME280;1730;41.932;25.548;2023-08-08T12:04:35;99052.97;;;27.01;100.00
3434;BME280;1730;41.932;25.548;2023-08-08T12:07:02;99087.31;;;26.36;100.00
3434;BME280;1730;41.932;25.548;2023-08-08T12:09:31;99091.25;;;26.18;100.00
3434;BME280;1730;41.932;25.548;2023-08-08T12:12:01;99089.41;;;27.24;100.00
3434;BME280;1730;41.932;25.548;2023-08-08T12:14:27;98963.22;;;26.86;100.00
3434;BME280;1730;41.932;25.548;2023-08-08T12:16:53;99077.47;;;27.19;100.00
3434;BME280;1730;41.932;25.548;2023-08-08T12:19:23;99076.59;;;26.81;100.00
3434;BME280;1730;41.932;25.548;2023-08-08T12:21:48;99074.75;;;26.87;100.00
3434;BME280;1730;41.932;25.548;2023-08-08T12:24:14;99060.31;;;26.48;100.00
3434;BME280;1730;41.932;25.548;2023-08-08T12:26:40;99056.25;;;26.61;100.00
3434;BME280;1730;41.932;25.548;2023-08-08T12:29:05;99048.59;;;27.10;100.00
3434;BME280;1730;41.932;25.548;2023-08-08T12:31:31;99051.06;;;27.01;100.00
3434;BME280;1730;41.932;25.548;2023-08-08T12:33:57;99042.06;;;26.84;100.00
3434;BME280;1730;41.932;25.548;2023-08-08T12:36:22;99043.88;;;27.57;100.00
3434;BME280;1730;41.932;25.548;2023-08-08T12:38:48;99045.97;;;28.07;100.00
3434;BME280;1730;41.932;25.548;2023-08-08T12:41:13;98997.19;;;28.27;100.00
3434;BME280;1730;41.932;25.548;2023-08-08T12:43:39;99036.16;;;27.69;100.00
3434;BME280;1730;41.932;25.548;2023-08-08T12:46:05;99031.75;;;27.11;100.00
3434;BME280;1730;41.932;25.548;2023-08-08T12:48:30;99036.12;;;27.54;100.00
3434;BME280;1730;41.932;25.548;2023-08-08T12:50:56;99032.03;;;27.82;100.00
3434;BME280;1730;41.932;25.548;2023-08-08T12:53:22;99018.31;;;27.45;100.00
3434;BME280;1730;41.932;25.548;2023-08-08T12:55:47;99018.97;;;27.67;100.00
3434;BME280;1730;41.932;25.548;2023-08-08T12:58:13;99018.19;;;27.92;100.00
3434;BME280;1730;41.932;25.548;2023-08-08T13:00:38;99029.38;;;28.28;100.00